Portada
METAR-TAF:

METAR-TAF

Aeropuertos :

Stennis International Airport

Bay St. Louis, Misisipi, Estados Unidos

latitud: 30-22-04N, longitud: 089-27-17W, altitud: 7 m

Observación

El informe se hizo hace 1 hora y 4 minutos, a las 01:50 UTC
Viento calma
Temperatura 29°C
Humedad 84%
Presión 1014 hPa
Visibilidad: 11.3 km
Cielo despejado

METAR: KHSA 100150Z 00000KT 7SM CLR 29/26 A2993

Hora: 21:54 (02:54 UTC)


TAF: falta

Observaciones y pronósticos meteorológicos de más de 4000 aeropuertos (mensajes METAR y TAF).

Los puntos amarillos y rojos representan las estaciones disponibles.

Ponga el ratón en el punto deseado para ver el nombre de la estación.

Haga clic para ver las observaciones y los pronósticos meteorológicos.

Para cambiar el mapa : haga clic en los botones verdes con una cruz de color negro para hacer un zoom, en el botón verde con un guión para alejar o en las flechas verdes para mapas adyacentes.


METAR-TAF: